Estación Meteorológica Peña el Pijo (Robertgarden) [ 02/03/23 04:29:13 CET ]

Fecha Hora Presion(HPa) Temp (°C) Humedad % Rocio (°C) Viento ( m/s) Direccion Lluvia 1Hora(mm) Lluvia 24H(mm) LLuvia Total(mm)
2012-Mar-12 01:01:18 1015.600 1.1 59 -6.0         153.32
2012-Mar-12 02:01:42 1016.100 0.3 62 -6.1         153.32
2012-Mar-12 03:06:14 1015.600 -0.2 62 -6.6         153.32
2012-Mar-12 04:01:13 1015.300 -0.2 62 -6.6         153.32
2012-Mar-12 05:01:14 1015.200 -0.5 63 -6.7         153.32
2012-Mar-12 06:01:13 1015.400 -1.1 66 -6.7         153.32
2012-Mar-12 07:01:13 1015.600 -1.2 68 -6.4         153.32
2012-Mar-12 08:01:12 1016.000 -1.2 68 -6.4         153.32
2012-Mar-12 09:01:13 1015.800 5.5 58 -2.1         153.32
2012-Mar-12 10:01:13 1015.600 11.3 40 -1.8         153.32
2012-Mar-12 11:01:16 1015.300 17.9 27 -1.5         153.32
2012-Mar-12 12:01:14 1015.000 20.1 22 -2.4         153.32
2012-Mar-12 13:01:16 1015.000 21.6 18 -4.1         153.32
2012-Mar-12 14:01:14 1014.600 21.6 18 -4.1         153.32
2012-Mar-12 15:01:14 1014.300 22.2 18 -3.6         153.32
2012-Mar-12 16:01:13 1014.100 22.6 17 -4.2         153.32
2012-Mar-12 17:01:14 1014.100 21.3 16 -6.2         153.32
2012-Mar-12 18:01:17 1014.300 19.9 19 -4.6         153.32
2012-Mar-12 19:01:17 1014.700 15.6 24 -5.1         153.32
2012-Mar-12 20:01:15 1015.200 11.8 30 -5.2         153.32
2012-Mar-12 21:01:14 1016.300 8.2 38 -5.4         153.32
2012-Mar-12 22:01:18 1016.800 5.5 45 -5.6         153.32
2012-Mar-12 23:01:14 1016.800 5.0 48 -5.2         153.32

Temperatura Máxima:22°    Temperatura Mínima:-1°
Presión Máxima:1016.800 Hpa    Presión Mínima:1014.100 Hpa


Volver